Time;durP1;ratioP1;P1;durP2;ratioP2;P2;SDS_P1;SDS_P2;PMS_P1;PMS_P2;Temp;Humidity;BMP_temperature;BMP_pressure;BME280_temperature;BME280_humidity;BME280_pressure;Samples;Min_cycle;Max_cycle;Signal;HPM_P1;HPM_P2
2022/07/09 00:00:22;;;;;;;59.63;50.33;;;24.40;56.10;;;;;;5026557;27;90719;-54
2022/07/09 00:02:47;;;;;;;60.13;50.05;;;24.40;56.00;;;;;;5016501;27;89902;-51
2022/07/09 00:05:13;;;;;;;59.03;50.03;;;24.30;55.90;;;;;;5018225;27;92519;-56
2022/07/09 00:07:39;;;;;;;59.33;50.25;;;24.30;56.00;;;;;;5012659;27;89581;-53
2022/07/09 00:10:05;;;;;;;59.22;50.25;;;24.30;56.10;;;;;;5023806;27;89943;-52
2022/07/09 00:12:31;;;;;;;60.15;50.15;;;24.30;56.00;;;;;;5016616;27;90376;-55
2022/07/09 00:14:56;;;;;;;59.15;50.05;;;24.30;56.00;;;;;;5018012;27;90976;-52
2022/07/09 00:17:22;;;;;;;60.60;50.17;;;24.30;56.00;;;;;;5015562;27;89838;-53
2022/07/09 00:19:48;;;;;;;60.35;50.17;;;24.30;55.80;;;;;;5012994;27;90740;-52
2022/07/09 00:22:13;;;;;;;59.38;49.95;;;24.30;55.90;;;;;;5013112;27;89222;-53
2022/07/09 00:24:39;;;;;;;58.80;49.88;;;24.30;56.40;;;;;;5016819;27;93445;-53
2022/07/09 00:27:05;;;;;;;59.47;50.17;;;24.30;55.90;;;;;;5018232;27;89742;-51
2022/07/09 00:29:31;;;;;;;59.60;49.83;;;24.30;56.40;;;;;;5021893;27;91507;-52
2022/07/09 00:31:56;;;;;;;59.50;50.15;;;24.30;55.90;;;;;;5019920;27;91655;-49
2022/07/09 00:34:22;;;;;;;59.22;49.83;;;24.30;55.90;;;;;;5024461;27;90214;-51
2022/07/09 00:36:47;;;;;;;59.10;49.85;;;24.30;55.90;;;;;;5020934;27;95808;-52
2022/07/09 00:39:13;;;;;;;59.83;50.20;;;24.30;55.90;;;;;;5017114;27;90257;-53
2022/07/09 00:41:39;;;;;;;61.08;50.08;;;24.20;55.90;;;;;;5012017;27;91864;-56
2022/07/09 00:44:04;;;;;;;59.92;50.08;;;24.30;56.00;;;;;;5029103;27;93308;-55
2022/07/09 00:46:30;;;;;;;58.92;49.72;;;24.20;55.80;;;;;;5023026;27;88845;-53
2022/07/09 00:48:56;;;;;;;59.22;50.03;;;24.20;55.90;;;;;;5011997;27;90077;-53
2022/07/09 00:51:21;;;;;;;58.95;49.72;;;24.20;55.90;;;;;;5023869;27;89846;-56
2022/07/09 00:53:49;;;;;;;59.17;49.92;;;24.20;56.00;;;;;;5027773;27;91068;-53
2022/07/09 00:56:16;;;;;;;59.30;50.08;;;24.20;55.90;;;;;;5019549;27;89549;-52
2022/07/09 00:58:44;;;;;;;58.60;49.90;;;24.20;55.90;;;;;;5018451;27;90929;-55
2022/07/09 01:01:10;;;;;;;60.90;50.58;;;24.20;55.90;;;;;;5021069;27;90305;-54
2022/07/09 01:03:35;;;;;;;58.75;49.65;;;24.20;55.90;;;;;;5013950;27;90342;-53
2022/07/09 01:06:01;;;;;;;59.15;49.95;;;24.20;55.90;;;;;;5000299;27;89589;-52
2022/07/09 01:08:27;;;;;;;58.92;49.80;;;24.20;55.90;;;;;;5030682;27;90222;-50
2022/07/09 01:10:53;;;;;;;59.97;50.13;;;24.20;56.60;;;;;;5027076;27;89207;-52
2022/07/09 01:13:19;;;;;;;59.60;49.97;;;24.10;55.90;;;;;;5023583;27;90363;-55
2022/07/09 01:15:45;;;;;;;59.20;50.08;;;24.10;55.90;;;;;;5015157;27;89969;-55
2022/07/09 01:18:11;;;;;;;59.63;50.08;;;24.20;55.90;;;;;;5015213;27;91673;-49
2022/07/09 01:20:37;;;;;;;60.03;49.97;;;24.10;56.00;;;;;;5022396;27;90865;-52
2022/07/09 01:23:02;;;;;;;59.28;49.90;;;24.10;55.90;;;;;;5006166;27;96661;-52
2022/07/09 01:25:40;;;;;;;59.25;50.08;;;24.10;56.00;;;;;;5023134;27;89907;-53
2022/07/09 01:28:07;;;;;;;58.95;49.90;;;24.20;56.00;;;;;;5021507;27;90203;-51
2022/07/09 01:30:34;;;;;;;59.03;49.97;;;24.10;55.90;;;;;;5009735;27;89866;-51
2022/07/09 01:33:00;;;;;;;59.13;50.08;;;24.10;56.00;;;;;;5017512;27;89956;-55
2022/07/09 01:35:26;;;;;;;59.45;50.17;;;24.10;56.00;;;;;;5017845;27;92237;-54
2022/07/09 01:37:53;;;;;;;58.83;50.22;;;24.10;56.00;;;;;;5018016;27;90050;-54
2022/07/09 01:40:20;;;;;;;59.03;50.00;;;24.10;56.00;;;;;;5026877;27;90986;-53
2022/07/09 01:42:46;;;;;;;59.13;50.13;;;24.10;56.10;;;;;;5013889;27;90888;-54
2022/07/09 01:45:12;;;;;;;58.90;50.03;;;24.10;56.10;;;;;;5020560;27;90004;-53
2022/07/09 01:47:38;;;;;;;59.03;50.13;;;24.10;56.10;;;;;;5019613;27;90151;-51
2022/07/09 01:50:04;;;;;;;59.28;50.05;;;24.10;56.10;;;;;;5007891;27;89910;-52
2022/07/09 01:52:30;;;;;;;59.90;49.95;;;24.10;56.10;;;;;;5016021;27;91783;-53
2022/07/09 01:54:56;;;;;;;58.45;49.72;;;24.00;56.10;;;;;;5016041;27;89592;-54
2022/07/09 01:57:22;;;;;;;58.85;49.75;;;24.10;56.10;;;;;;5019367;27;95092;-53
2022/07/09 01:59:47;;;;;;;58.85;49.97;;;24.10;56.10;;;;;;5015904;27;90295;-54
2022/07/09 02:02:13;;;;;;;58.53;49.92;;;24.00;56.00;;;;;;5010439;27;91165;-50
2022/07/09 02:04:39;;;;;;;59.03;49.65;;;24.00;56.00;;;;;;5006953;27;90051;-54
2022/07/09 02:07:04;;;;;;;58.75;49.97;;;24.00;56.00;;;;;;5028512;27;93472;-53
2022/07/09 02:09:30;;;;;;;58.75;49.75;;;24.00;56.10;;;;;;5022364;27;91084;-49
2022/07/09 02:11:56;;;;;;;59.00;50.08;;;24.00;56.10;;;;;;5014965;27;89615;-54
2022/07/09 02:14:22;;;;;;;58.38;49.80;;;24.00;56.20;;;;;;5024159;27;90111;-55
2022/07/09 02:16:48;;;;;;;58.90;50.03;;;24.00;56.20;;;;;;5016909;27;90302;-54
2022/07/09 02:19:14;;;;;;;58.38;49.92;;;24.00;56.20;;;;;;5006470;27;89911;-52
2022/07/09 02:21:40;;;;;;;58.88;49.90;;;24.00;56.20;;;;;;5025576;27;89960;-49
2022/07/09 02:24:06;;;;;;;59.03;50.08;;;24.00;56.30;;;;;;5031753;27;90510;-54
2022/07/09 02:26:32;;;;;;;59.17;49.95;;;24.00;56.30;;;;;;5017050;27;90204;-52
2022/07/09 02:28:59;;;;;;;60.03;49.78;;;24.00;56.30;;;;;;5011245;27;94419;-51
2022/07/09 02:31:26;;;;;;;59.83;50.10;;;24.00;56.30;;;;;;5012431;27;90858;-53
2022/07/09 02:33:52;;;;;;;58.22;49.72;;;24.00;56.30;;;;;;5019585;27;90476;-51
2022/07/09 02:36:17;;;;;;;59.10;49.72;;;23.90;56.20;;;;;;5017612;27;90413;-52
2022/07/09 02:38:43;;;;;;;58.75;49.60;;;23.90;56.30;;;;;;5009197;27;92222;-52
2022/07/09 02:41:09;;;;;;;58.28;49.83;;;23.90;56.30;;;;;;5020416;27;89773;-51
2022/07/09 02:43:34;;;;;;;59.88;49.95;;;23.90;56.30;;;;;;5008387;27;89958;-53
2022/07/09 02:46:00;;;;;;;59.00;49.85;;;23.90;56.40;;;;;;5023886;27;89999;-54
2022/07/09 02:48:26;;;;;;;58.30;49.65;;;23.90;56.40;;;;;;5022524;27;89904;-53
2022/07/09 02:50:53;;;;;;;58.40;49.80;;;23.90;56.40;;;;;;5019048;27;89474;-50
2022/07/09 02:53:19;;;;;;;59.50;49.97;;;23.90;56.40;;;;;;5023741;27;89925;-52
2022/07/09 02:55:45;;;;;;;59.83;49.97;;;23.80;56.30;;;;;;5010122;27;90601;-52
2022/07/09 02:58:11;;;;;;;58.63;49.70;;;23.80;56.30;;;;;;5026241;27;91022;-52
2022/07/09 03:00:39;;;;;;;59.55;50.03;;;23.90;56.40;;;;;;5027031;27;90220;-56
2022/07/09 03:03:05;;;;;;;59.45;49.75;;;23.80;56.40;;;;;;5023748;27;90143;-50
2022/07/09 03:05:31;;;;;;;58.38;50.00;;;23.80;56.40;;;;;;5014762;27;90144;-54
2022/07/09 03:07:57;;;;;;;58.70;49.78;;;23.80;56.40;;;;;;5013416;27;89978;-54
2022/07/09 03:10:22;;;;;;;59.90;49.78;;;23.80;56.40;;;;;;5019086;27;89977;-52
2022/07/09 03:12:48;;;;;;;59.63;50.20;;;23.80;56.50;;;;;;5023290;27;96400;-53
2022/07/09 03:15:16;;;;;;;58.72;49.72;;;23.80;56.50;;;;;;5024700;27;95550;-51
2022/07/09 03:17:42;;;;;;;58.40;49.60;;;23.80;56.40;;;;;;5032984;27;90717;-54
2022/07/09 03:20:09;;;;;;;58.70;49.70;;;23.80;56.50;;;;;;5032196;27;92151;-52
2022/07/09 03:22:35;;;;;;;58.67;49.67;;;23.80;56.50;;;;;;5021173;27;89526;-50
2022/07/09 03:25:01;;;;;;;61.67;50.08;;;23.80;56.50;;;;;;5013404;27;90553;-52
2022/07/09 03:27:27;;;;;;;58.15;49.78;;;23.70;56.40;;;;;;5029945;27;89898;-51
2022/07/09 03:29:52;;;;;;;58.05;49.58;;;23.70;56.50;;;;;;5021897;27;89473;-50
2022/07/09 03:32:18;;;;;;;58.78;49.90;;;23.70;56.50;;;;;;5018171;27;89526;-51
2022/07/09 03:34:44;;;;;;;58.92;49.97;;;23.70;56.50;;;;;;5018365;27;92525;-54
2022/07/09 03:37:09;;;;;;;58.05;49.70;;;23.70;56.60;;;;;;5028628;27;93346;-50
2022/07/09 03:39:35;;;;;;;58.05;49.45;;;23.70;56.60;;;;;;5025556;27;91078;-54
2022/07/09 03:42:01;;;;;;;57.90;49.72;;;23.70;56.60;;;;;;5006814;27;89675;-53
2022/07/09 03:44:26;;;;;;;57.97;49.67;;;23.70;56.70;;;;;;5020397;27;91138;-53
2022/07/09 03:46:52;;;;;;;59.03;49.97;;;23.70;56.70;;;;;;5015414;27;89812;-52
2022/07/09 03:49:18;;;;;;;58.45;49.75;;;23.60;56.70;;;;;;5011910;27;89913;-51
2022/07/09 03:51:44;;;;;;;58.50;49.97;;;23.60;56.60;;;;;;5029725;27;89895;-50
2022/07/09 03:54:10;;;;;;;58.65;50.05;;;23.60;56.70;;;;;;5023532;27;90560;-52
2022/07/09 03:56:35;;;;;;;57.90;49.65;;;23.60;56.70;;;;;;5022014;27;89585;-52
2022/07/09 03:59:01;;;;;;;59.63;49.58;;;23.60;56.70;;;;;;5020656;27;90030;-53
2022/07/09 04:01:27;;;;;;;60.55;49.67;;;23.60;56.70;;;;;;5026691;27;91717;-52
2022/07/09 04:03:52;;;;;;;58.67;49.55;;;23.60;56.70;;;;;;5022430;27;90741;-55
2022/07/09 04:06:20;;;;;;;58.38;49.80;;;23.60;56.70;;;;;;5019774;27;90094;-51
2022/07/09 04:08:45;;;;;;;59.30;49.63;;;23.60;57.30;;;;;;5021467;27;96180;-50
2022/07/09 04:11:11;;;;;;;58.88;49.88;;;23.60;56.70;;;;;;5026793;27;92460;-49
2022/07/09 04:13:37;;;;;;;57.97;49.55;;;23.60;56.70;;;;;;5018466;27;90039;-55
2022/07/09 04:16:03;;;;;;;60.10;50.10;;;23.50;56.70;;;;;;5035873;27;89857;-53
2022/07/09 04:18:29;;;;;;;59.05;49.90;;;23.50;56.70;;;;;;5017598;27;89653;-52
2022/07/09 04:20:54;;;;;;;59.42;49.75;;;23.50;56.70;;;;;;5023106;27;90087;-55
2022/07/09 04:23:20;;;;;;;61.90;50.15;;;23.50;56.80;;;;;;5021646;27;89736;-52
2022/07/09 04:25:47;;;;;;;59.45;50.03;;;23.50;56.90;;;;;;5010657;27;89812;-53
2022/07/09 04:28:13;;;;;;;58.55;49.92;;;23.40;57.00;;;;;;5018265;27;90196;-51
2022/07/09 04:30:40;;;;;;;58.33;50.03;;;23.40;57.00;;;;;;5029049;27;89510;-54
2022/07/09 04:33:06;;;;;;;57.90;49.42;;;23.40;57.10;;;;;;5017255;27;93396;-54
2022/07/09 04:35:31;;;;;;;58.72;49.83;;;23.40;57.20;;;;;;5018132;27;90587;-53
2022/07/09 04:37:57;;;;;;;58.78;49.78;;;23.40;57.10;;;;;;5018765;27;90397;-52
2022/07/09 04:40:23;;;;;;;58.60;50.15;;;23.40;57.10;;;;;;5019521;27;89623;-49
2022/07/09 04:42:48;;;;;;;58.85;49.65;;;23.40;57.00;;;;;;5023677;27;91491;-54
2022/07/09 04:45:15;;;;;;;58.92;49.92;;;23.50;57.00;;;;;;5018213;27;89953;-52
2022/07/09 04:47:41;;;;;;;59.22;50.05;;;23.40;57.00;;;;;;5007900;27;91112;-54
2022/07/09 04:50:07;;;;;;;59.65;50.17;;;23.50;57.00;;;;;;5013081;27;88975;-50
2022/07/09 04:52:33;;;;;;;57.67;49.67;;;23.50;57.00;;;;;;5024144;27;90156;-54
2022/07/09 04:54:59;;;;;;;59.30;49.95;;;23.40;56.90;;;;;;5029990;27;90337;-53
2022/07/09 04:57:24;;;;;;;58.28;49.80;;;23.50;56.90;;;;;;5026190;27;90928;-51
2022/07/09 04:59:50;;;;;;;57.90;49.75;;;23.50;56.80;;;;;;5024300;27;90011;-52
2022/07/09 05:02:15;;;;;;;59.33;50.25;;;23.50;56.80;;;;;;5014576;27;90733;-51
2022/07/09 05:04:41;;;;;;;58.65;50.15;;;23.50;56.70;;;;;;5026863;27;89913;-52
2022/07/09 05:07:07;;;;;;;58.58;49.75;;;23.50;56.70;;;;;;5005851;27;94425;-53
2022/07/09 05:09:32;;;;;;;59.38;49.65;;;23.50;56.70;;;;;;5023252;27;89733;-52
2022/07/09 05:11:58;;;;;;;58.53;49.90;;;23.50;56.60;;;;;;5030417;27;90591;-51
2022/07/09 05:14:24;;;;;;;58.53;50.03;;;23.50;56.60;;;;;;5014583;27;91256;-55
2022/07/09 05:16:49;;;;;;;60.85;50.40;;;23.60;56.50;;;;;;5017209;27;90721;-50
2022/07/09 05:19:15;;;;;;;58.30;49.78;;;23.60;56.50;;;;;;5023367;27;89535;-49
2022/07/09 05:21:41;;;;;;;60.92;50.03;;;23.60;56.40;;;;;;5021380;27;93674;-50
2022/07/09 05:24:07;;;;;;;58.58;49.85;;;23.60;56.40;;;;;;5023117;27;92383;-52
2022/07/09 05:26:34;;;;;;;58.95;49.90;;;23.60;56.40;;;;;;5017159;27;89427;-54
2022/07/09 05:28:59;;;;;;;58.58;50.05;;;23.60;56.30;;;;;;5011569;27;90021;-53
2022/07/09 05:31:25;;;;;;;59.17;49.85;;;23.60;56.30;;;;;;5029972;27;90504;-53
2022/07/09 05:33:51;;;;;;;58.70;50.05;;;23.60;56.30;;;;;;5023449;27;92640;-54
2022/07/09 05:36:18;;;;;;;58.33;49.67;;;23.60;56.20;;;;;;5010249;27;89772;-52
2022/07/09 05:38:44;;;;;;;58.60;50.00;;;23.60;56.20;;;;;;5018484;27;90728;-53
2022/07/09 05:41:10;;;;;;;57.78;49.55;;;23.60;56.10;;;;;;5023219;27;90036;-56
2022/07/09 05:43:36;;;;;;;57.55;49.33;;;23.60;56.10;;;;;;5016579;27;94020;-54
2022/07/09 05:46:02;;;;;;;58.42;49.55;;;23.70;56.10;;;;;;5021641;27;90941;-52
2022/07/09 05:48:28;;;;;;;58.42;49.88;;;23.70;56.10;;;;;;5024765;27;89736;-54
2022/07/09 05:50:54;;;;;;;58.65;49.95;;;23.70;56.10;;;;;;5032368;27;90233;-51
2022/07/09 05:53:20;;;;;;;58.33;49.75;;;23.70;56.00;;;;;;5015314;27;89473;-54
2022/07/09 05:55:46;;;;;;;58.70;49.63;;;23.70;56.00;;;;;;5008271;27;95472;-52
2022/07/09 05:58:12;;;;;;;58.28;49.75;;;23.70;55.90;;;;;;5027023;27;89987;-50
2022/07/09 06:00:37;;;;;;;58.45;49.78;;;23.70;55.90;;;;;;5019077;27;91646;-53
2022/07/09 06:03:03;;;;;;;58.47;49.67;;;23.70;55.90;;;;;;5015947;27;89601;-52
2022/07/09 06:05:29;;;;;;;58.42;49.75;;;23.80;55.90;;;;;;5025250;27;89838;-54
2022/07/09 06:07:55;;;;;;;59.13;49.95;;;23.80;55.80;;;;;;5032282;27;90467;-53
2022/07/09 06:10:21;;;;;;;58.58;49.78;;;23.80;55.90;;;;;;5026059;27;90972;-53
2022/07/09 06:12:47;;;;;;;58.80;49.95;;;23.80;55.90;;;;;;5019218;27;90791;-52
2022/07/09 06:15:13;;;;;;;58.05;49.58;;;23.80;55.90;;;;;;5012368;27;94346;-51
2022/07/09 06:17:38;;;;;;;58.50;49.85;;;23.80;55.80;;;;;;5025100;27;90216;-53
2022/07/09 06:20:05;;;;;;;58.67;49.80;;;23.80;55.90;;;;;;5012784;27;93158;-52
2022/07/09 06:22:31;;;;;;;60.70;49.88;;;23.80;55.80;;;;;;4992129;27;95995;-52
2022/07/09 06:24:57;;;;;;;59.03;49.97;;;23.80;55.70;;;;;;5028578;27;89981;-51
2022/07/09 06:27:23;;;;;;;59.05;50.08;;;23.80;55.80;;;;;;5013875;27;96867;-52
2022/07/09 06:29:48;;;;;;;60.28;50.58;;;23.80;55.70;;;;;;5016756;27;91232;-51
2022/07/09 06:32:14;;;;;;;59.63;50.40;;;23.80;55.70;;;;;;5017671;27;91879;-55
2022/07/09 06:34:40;;;;;;;59.65;50.08;;;23.90;55.70;;;;;;5023987;27;90955;-54
2022/07/09 06:37:05;;;;;;;59.03;50.22;;;23.90;55.70;;;;;;5019773;27;89811;-54
2022/07/09 06:39:47;;;;;;;59.90;50.53;;;23.90;55.70;;;;;;5019428;27;90023;-53
2022/07/09 06:42:13;;;;;;;;;;;23.90;55.60;;;;;;5020636;27;89871;-54
2022/07/09 06:44:39;;;;;;;60.10;50.20;;;23.90;55.60;;;;;;5009405;27;89890;-53
2022/07/09 06:47:05;;;;;;;59.05;50.05;;;23.90;55.70;;;;;;5026760;27;91234;-53
2022/07/09 06:49:31;;;;;;;59.22;50.08;;;23.90;55.70;;;;;;5012239;27;89948;-50
2022/07/09 06:51:57;;;;;;;60.22;50.42;;;23.90;56.20;;;;;;5004242;27;89232;-52
2022/07/09 06:54:23;;;;;;;60.03;50.72;;;23.90;55.60;;;;;;5016677;27;93530;-52
2022/07/09 06:56:49;;;;;;;59.90;50.15;;;23.90;55.60;;;;;;5016179;27;92447;-53
2022/07/09 06:59:15;;;;;;;60.50;50.83;;;23.90;55.50;;;;;;5011627;27;92721;-49
2022/07/09 07:01:40;;;;;;;60.17;50.47;;;24.00;55.60;;;;;;5008445;27;91579;-49
2022/07/09 07:04:06;;;;;;;59.15;50.13;;;23.90;55.60;;;;;;5011000;27;89568;-52
2022/07/09 07:06:32;;;;;;;59.40;50.20;;;24.00;55.60;;;;;;5022443;27;89888;-54
2022/07/09 07:08:58;;;;;;;59.28;50.35;;;23.90;55.60;;;;;;5011337;27;95036;-55
2022/07/09 07:11:24;;;;;;;60.58;50.65;;;23.90;55.60;;;;;;5006938;27;89944;-52
2022/07/09 07:13:50;;;;;;;59.15;50.30;;;23.90;55.60;;;;;;5021310;27;89789;-55
2022/07/09 07:16:16;;;;;;;59.38;50.25;;;24.00;55.70;;;;;;5023046;27;89143;-56
2022/07/09 07:18:41;;;;;;;61.50;51.20;;;23.90;55.60;;;;;;5006667;27;91260;-52
2022/07/09 07:21:07;;;;;;;60.17;50.85;;;24.00;55.60;;;;;;5024163;27;89990;-54
2022/07/09 07:23:33;;;;;;;60.10;50.45;;;23.90;55.50;;;;;;5009841;27;91311;-51
2022/07/09 07:26:00;;;;;;;59.58;50.20;;;23.90;55.50;;;;;;5018674;27;89784;-53
2022/07/09 07:28:25;;;;;;;60.60;50.35;;;24.00;55.60;;;;;;5011628;27;90098;-52
2022/07/09 07:30:51;;;;;;;59.67;50.35;;;24.00;55.50;;;;;;5026277;27;92634;-53
2022/07/09 07:33:17;;;;;;;59.28;50.25;;;24.00;55.50;;;;;;5021516;27;89819;-55
2022/07/09 07:35:44;;;;;;;59.42;50.03;;;24.00;56.10;;;;;;5018281;27;90161;-55
2022/07/09 07:38:10;;;;;;;60.30;50.53;;;24.00;55.60;;;;;;5018157;27;89852;-55
2022/07/09 07:40:36;;;;;;;61.15;50.95;;;24.00;55.60;;;;;;5023090;27;90904;-53
2022/07/09 07:43:02;;;;;;;59.50;50.42;;;24.00;55.50;;;;;;5022942;27;89966;-54
2022/07/09 07:45:28;;;;;;;60.92;51.22;;;24.00;55.60;;;;;;5011337;27;90372;-49
2022/07/09 07:47:54;;;;;;;59.83;50.47;;;24.00;55.70;;;;;;5015009;27;91150;-52
2022/07/09 07:50:23;;;;;;;59.78;50.38;;;24.00;55.50;;;;;;5022138;27;90466;-56
2022/07/09 07:52:49;;;;;;;61.42;50.65;;;24.00;55.50;;;;;;5011803;27;90240;-55
2022/07/09 07:55:15;;;;;;;59.67;50.15;;;24.00;55.50;;;;;;5027219;27;90147;-55
2022/07/09 07:57:41;;;;;;;60.83;50.53;;;24.00;55.70;;;;;;5019164;27;90573;-50
2022/07/09 08:00:07;;;;;;;61.08;50.70;;;24.00;55.60;;;;;;5031917;27;89911;-54
2022/07/09 08:02:34;;;;;;;59.95;50.65;;;24.00;55.60;;;;;;5023141;27;89603;-52
2022/07/09 08:05:00;;;;;;;60.22;50.85;;;24.00;55.50;;;;;;5016180;27;88956;-51
2022/07/09 08:07:26;;;;;;;60.90;51.20;;;24.00;55.60;;;;;;5026053;27;90372;-56
2022/07/09 08:09:52;;;;;;;62.97;52.35;;;24.00;55.60;;;;;;5020696;27;90082;-53
2022/07/09 08:12:18;;;;;;;60.55;50.97;;;24.00;55.50;;;;;;5025718;27;91871;-54
2022/07/09 08:14:44;;;;;;;61.85;51.20;;;24.00;55.60;;;;;;5028338;27;89674;-52
2022/07/09 08:17:09;;;;;;;61.85;51.90;;;24.00;55.60;;;;;;5004621;27;89936;-50
2022/07/09 08:19:35;;;;;;;65.00;52.85;;;24.00;55.60;;;;;;5007293;27;89741;-52
2022/07/09 08:22:01;;;;;;;60.35;50.95;;;24.00;56.20;;;;;;5023446;27;89355;-52
2022/07/09 08:24:27;;;;;;;62.67;52.28;;;24.00;55.60;;;;;;5022037;27;90038;-50
2022/07/09 08:26:52;;;;;;;63.30;52.70;;;24.00;55.60;;;;;;5012377;27;93557;-52
2022/07/09 08:29:18;;;;;;;61.70;51.47;;;24.00;55.60;;;;;;5017991;27;90645;-55
2022/07/09 08:31:44;;;;;;;61.05;51.42;;;24.00;55.60;;;;;;5021349;27;90533;-50
2022/07/09 08:34:09;;;;;;;64.88;53.92;;;24.00;55.60;;;;;;5013455;27;91782;-54
2022/07/09 08:36:35;;;;;;;67.40;54.45;;;24.00;56.30;;;;;;5020779;27;91316;-53
2022/07/09 08:39:01;;;;;;;63.42;53.35;;;24.00;55.70;;;;;;5023008;27;90978;-52
2022/07/09 08:41:27;;;;;;;66.82;54.85;;;24.00;55.70;;;;;;5016283;27;92210;-54
2022/07/09 08:43:53;;;;;;;62.28;52.17;;;24.00;55.70;;;;;;5016817;27;90218;-56
2022/07/09 08:46:20;;;;;;;63.90;53.25;;;24.00;55.70;;;;;;5024273;27;94155;-56
2022/07/09 08:48:46;;;;;;;62.40;51.63;;;24.00;55.70;;;;;;5023273;27;90095;-51
2022/07/09 08:51:13;;;;;;;62.58;51.90;;;24.00;55.60;;;;;;5010174;27;90004;-54
2022/07/09 08:53:44;;;;;;;61.95;51.58;;;24.00;55.70;;;;;;5019119;27;89238;-53
2022/07/09 08:56:11;;;;;;;62.63;53.13;;;24.00;55.70;;;;;;5027875;27;90026;-55
2022/07/09 08:58:40;;;;;;;62.55;52.00;;;24.00;55.70;;;;;;5027535;27;90660;-52
2022/07/09 09:01:06;;;;;;;62.58;51.80;;;24.00;55.70;;;;;;5027527;27;91092;-52
2022/07/09 09:03:32;;;;;;;64.25;53.97;;;24.00;55.70;;;;;;5021031;27;90180;-52
2022/07/09 09:06:04;;;;;;;62.40;51.95;;;24.00;55.70;;;;;;5016110;27;90630;-55
2022/07/09 09:08:38;;;;;;;62.75;51.97;;;24.10;55.70;;;;;;5016047;27;92873;-50
2022/07/09 09:11:22;;;;;;;69.15;55.63;;;24.10;55.70;;;;;;5021818;27;90843;-53
2022/07/09 09:13:48;;;;;;;67.40;55.15;;;24.10;55.70;;;;;;5031781;27;89613;-55
2022/07/09 09:16:16;;;;;;;62.67;52.42;;;24.10;55.60;;;;;;5022343;27;90875;-55
2022/07/09 09:18:47;;;;;;;60.92;51.28;;;24.10;55.50;;;;;;5017818;27;89826;-55
2022/07/09 09:21:14;;;;;;;64.97;54.70;;;24.20;55.60;;;;;;5020739;27;89943;-50
2022/07/09 09:23:44;;;;;;;64.70;54.53;;;24.20;56.20;;;;;;5023544;27;90450;-52
2022/07/09 09:26:14;;;;;;;67.00;55.60;;;24.20;55.50;;;;;;5001650;27;92000;-55
2022/07/09 09:29:06;;;;;;;64.10;52.92;;;24.20;55.50;;;;;;5011607;27;90860;-54
2022/07/09 09:31:32;;;;;;;62.05;51.60;;;24.20;55.50;;;;;;5010223;27;91985;-52
2022/07/09 09:34:06;;;;;;;65.18;54.13;;;24.20;55.50;;;;;;5024537;27;93013;-53
2022/07/09 09:36:33;;;;;;;63.80;52.58;;;24.20;55.50;;;;;;5024904;27;90486;-55
2022/07/09 09:39:10;;;;;;;68.90;55.40;;;24.20;55.50;;;;;;5017939;27;90729;-55
2022/07/09 09:41:36;;;;;;;64.63;52.38;;;24.30;55.50;;;;;;5022002;27;89723;-56
2022/07/09 09:44:09;;;;;;;66.15;53.00;;;24.30;55.50;;;;;;5018956;27;88924;-53
2022/07/09 09:46:37;;;;;;;63.78;53.38;;;24.30;55.50;;;;;;5026108;27;90198;-53
2022/07/09 09:49:07;;;;;;;64.40;53.55;;;24.30;55.50;;;;;;5024067;27;91511;-53
2022/07/09 09:51:36;;;;;;;65.05;54.17;;;24.30;55.40;;;;;;5026552;27;90767;-52
2022/07/09 09:54:03;;;;;;;63.33;52.70;;;24.30;55.50;;;;;;5031357;27;90152;-50
2022/07/09 09:56:29;;;;;;;66.65;55.15;;;24.30;55.50;;;;;;5010371;27;90112;-51
2022/07/09 09:58:56;;;;;;;63.60;52.53;;;24.40;55.50;;;;;;5021637;27;89855;-52
2022/07/09 10:01:22;;;;;;;61.65;51.83;;;24.40;55.50;;;;;;5022722;27;95980;-55
2022/07/09 10:03:49;;;;;;;65.95;54.25;;;24.40;55.60;;;;;;5021667;27;91363;-53
2022/07/09 10:06:15;;;;;;;62.60;52.05;;;24.40;55.60;;;;;;5008605;27;90389;-51
2022/07/09 10:08:41;;;;;;;65.75;54.05;;;24.40;55.60;;;;;;5019872;27;90006;-54
2022/07/09 10:11:06;;;;;;;65.00;53.22;;;24.40;55.50;;;;;;5019510;27;90084;-55
2022/07/09 10:13:32;;;;;;;62.38;51.72;;;24.40;55.60;;;;;;5016851;27;89984;-54
2022/07/09 10:15:59;;;;;;;63.17;53.03;;;24.40;55.60;;;;;;5019839;27;91525;-55
2022/07/09 10:18:24;;;;;;;62.33;52.35;;;24.40;55.60;;;;;;5012733;27;91095;-51
2022/07/09 10:20:56;;;;;;;62.97;51.45;;;24.40;55.70;;;;;;5011422;27;89874;-51
2022/07/09 10:23:22;;;;;;;61.38;51.17;;;24.40;55.60;;;;;;5020838;27;90133;-51
2022/07/09 10:25:52;;;;;;;61.92;51.67;;;24.40;55.70;;;;;;5018999;27;91366;-52
2022/07/09 10:28:19;;;;;;;61.50;51.33;;;24.40;55.70;;;;;;5012649;27;92235;-54
2022/07/09 10:30:45;;;;;;;62.05;51.63;;;24.40;55.70;;;;;;5023202;27;89868;-56
2022/07/09 10:33:13;;;;;;;61.70;51.10;;;24.40;55.70;;;;;;5018468;27;92100;-54
2022/07/09 10:35:44;;;;;;;61.13;51.15;;;24.40;55.70;;;;;;5021569;27;90680;-51
2022/07/09 10:38:10;;;;;;;61.15;51.47;;;24.40;55.70;;;;;;5010368;27;90521;-61
2022/07/09 10:40:57;;;;;;;61.63;51.10;;;24.40;55.70;;;;;;5013155;27;91246;-52
2022/07/09 10:43:57;;;;;;;60.70;51.13;;;24.50;55.70;;;;;;5020326;27;90056;-53
2022/07/09 10:46:24;;;;;;;61.08;51.25;;;24.50;55.70;;;;;;5017007;27;91622;-51
2022/07/09 10:48:50;;;;;;;61.97;51.22;;;24.50;55.70;;;;;;5026799;27;92166;-50
2022/07/09 10:51:20;;;;;;;61.53;51.22;;;24.50;55.70;;;;;;5021468;27;90227;-55
2022/07/09 10:53:46;;;;;;;64.25;50.95;;;24.50;55.80;;;;;;5020555;27;90652;-53
2022/07/09 10:56:19;;;;;;;60.72;50.83;;;24.50;55.70;;;;;;5008591;27;94200;-52
2022/07/09 10:58:47;;;;;;;60.83;50.80;;;24.50;55.80;;;;;;5017744;27;89179;-54
2022/07/09 11:01:24;;;;;;;61.75;50.95;;;24.50;55.80;;;;;;5008912;27;90838;-51
2022/07/09 11:03:51;;;;;;;61.90;50.92;;;24.50;55.80;;;;;;5013216;27;90781;-54
2022/07/09 11:06:17;;;;;;;60.60;50.53;;;24.50;55.80;;;;;;5019071;27;91952;-53
2022/07/09 11:08:42;;;;;;;60.78;50.85;;;24.50;55.70;;;;;;5022419;27;94619;-53
2022/07/09 11:11:08;;;;;;;61.20;50.97;;;24.50;55.80;;;;;;5024114;27;90040;-53
2022/07/09 11:13:34;;;;;;;60.70;50.83;;;24.50;55.80;;;;;;5026650;27;89734;-53
2022/07/09 11:16:01;;;;;;;61.85;51.03;;;24.50;55.80;;;;;;5012400;27;90431;-55
2022/07/09 11:18:28;;;;;;;61.70;50.85;;;24.50;55.80;;;;;;5017566;27;90508;-55
2022/07/09 11:20:55;;;;;;;61.25;51.00;;;24.60;55.80;;;;;;5021673;27;90916;-55
2022/07/09 11:23:20;;;;;;;61.45;50.85;;;24.50;55.80;;;;;;5018556;27;89688;-50
2022/07/09 11:25:46;;;;;;;60.75;50.75;;;24.60;55.90;;;;;;5022735;27;90645;-56
2022/07/09 11:28:23;;;;;;;62.38;50.92;;;24.60;55.80;;;;;;5027552;27;92347;-55
2022/07/09 11:30:58;;;;;;;61.65;50.85;;;24.60;56.40;;;;;;5024367;27;90851;-55
2022/07/09 11:33:24;;;;;;;61.03;50.90;;;24.60;55.80;;;;;;5031048;27;89824;-52
2022/07/09 11:35:50;;;;;;;61.22;50.90;;;24.60;55.90;;;;;;5023101;27;91923;-52
2022/07/09 11:38:16;;;;;;;61.63;50.83;;;24.60;55.80;;;;;;5022660;27;89877;-54
2022/07/09 11:40:41;;;;;;;61.55;51.00;;;24.60;55.80;;;;;;5010687;27;90717;-55
2022/07/09 11:43:16;;;;;;;61.03;50.80;;;24.60;55.90;;;;;;5023187;27;97328;-49
2022/07/09 11:45:53;;;;;;;60.97;50.85;;;24.60;55.90;;;;;;5032750;27;90831;-53
2022/07/09 11:48:18;;;;;;;60.80;50.83;;;24.60;55.90;;;;;;5010821;27;90964;-51
2022/07/09 11:50:46;;;;;;;61.00;50.97;;;24.60;55.90;;;;;;5019429;27;89778;-52
2022/07/09 11:53:27;;;;;;;61.60;50.88;;;24.60;55.90;;;;;;5025343;27;89644;-52
2022/07/09 11:56:04;;;;;;;60.90;50.92;;;24.60;55.90;;;;;;5028748;27;93741;-54
2022/07/09 11:58:29;;;;;;;60.75;50.80;;;24.60;55.90;;;;;;5012965;27;89928;-51
2022/07/09 12:00:59;;;;;;;61.00;50.83;;;24.70;55.90;;;;;;5021480;27;90041;-53
2022/07/09 12:03:29;;;;;;;61.03;50.75;;;24.70;55.90;;;;;;5017297;27;89826;-50
2022/07/09 12:05:55;;;;;;;61.30;51.05;;;24.70;55.90;;;;;;5024066;27;90098;-55
2022/07/09 12:08:29;;;;;;;61.50;50.78;;;24.70;55.90;;;;;;5003451;27;94279;-50
2022/07/09 12:10:56;;;;;;;60.83;50.83;;;24.70;55.90;;;;;;5020415;27;89851;-52
2022/07/09 12:13:21;;;;;;;61.72;51.00;;;24.70;55.90;;;;;;5019953;27;88949;-54
2022/07/09 12:15:47;;;;;;;60.88;50.95;;;24.70;55.90;;;;;;5024782;27;89866;-54
2022/07/09 12:18:12;;;;;;;60.97;50.83;;;24.70;55.90;;;;;;5019622;27;93702;-50
2022/07/09 12:20:38;;;;;;;60.97;50.95;;;24.70;56.00;;;;;;5020389;27;90443;-48
2022/07/09 12:23:04;;;;;;;61.45;51.03;;;24.70;56.00;;;;;;5032315;27;89795;-54
2022/07/09 12:25:29;;;;;;;61.00;50.83;;;24.70;55.90;;;;;;5024971;27;89794;-55